Super Jet — IINO — position and weather

sailwx.info

Track history (hours):
 
Tides and Currents Weather Stations Pressure Air Temp Water Temp Dewpoint Dewpoint Depression Visibility Wind Speed Wind Dir Waves Ship Positions

Super Jet

Last reported at 2016-Dec-01 13:32 UTC. Time now 2016-Dec-03 19:46 UTC.
Position N 40°50' E 014°15'.

Length 30 m; draft 1.4 m.

Type: High speed craft. MMSI: 247540000.

Date/timePositionNaut miles runAvg speedWind from/ knotsBaromVisibWave heightAir tempDewpointWater temp
2016-Dec-01 13:32N 40°50' E 014°15'1 0.8
2016-Dec-01 12:33N 40°51' E 014°16'0 0.0
2016-Dec-01 11:33N 40°51' E 014°16'0 0.0
2016-Dec-01 10:24N 40°51' E 014°16'0 0.1
2016-Dec-01 07:20N 40°50' E 014°16'911.2
2016-Dec-01 06:33N 40°43' E 014°21'5 2.1
2016-Dec-01 04:17N 40°38' E 014°23'0 0.0
2016-Dec-01 03:31N 40°38' E 014°23'0 0.0
2016-Dec-01 02:33N 40°38' E 014°23'0 0.0
2016-Dec-01 01:31N 40°38' E 014°23'0 0.0
2016-Dec-01 00:28N 40°38' E 014°23'0 0.0
2016-Nov-30 23:31N 40°38' E 014°23'0 0.0
2016-Nov-30 22:33N 40°38' E 014°23'0 0.0
2016-Nov-30 21:33N 40°38' E 014°23'0 0.0
2016-Nov-30 20:34N 40°38' E 014°23'0 0.0
2016-Nov-30 19:33N 40°38' E 014°23'0 0.0
2016-Nov-30 18:33N 40°38' E 014°23'1211.8
2016-Nov-30 17:33N 40°49' E 014°17'2 0.9
2016-Nov-30 15:30N 40°51' E 014°16'0 0.0
2016-Nov-30 14:32N 40°51' E 014°16'0 0.0
2016-Nov-30 13:25N 40°50' E 014°16'0 0.0
2016-Nov-30 12:33N 40°51' E 014°16'0 0.0
2016-Nov-30 11:32N 40°51' E 014°16'0 0.0
2016-Nov-30 10:33N 40°51' E 014°16'0 0.0
2016-Nov-30 09:22N 40°50' E 014°16'9 3.3
2016-Nov-30 06:33N 40°43' E 014°23'5 4.7
2016-Nov-30 05:33N 40°38' E 014°23'0 0.0
2016-Nov-30 04:33N 40°38' E 014°23'0 0.0
2016-Nov-30 03:34N 40°38' E 014°23'0 0.0
2016-Nov-30 02:33N 40°38' E 014°23'0 0.0
2016-Nov-30 01:32N 40°38' E 014°23'0 0.0
2016-Nov-30 00:33N 40°38' E 014°23'0 0.0
2016-Nov-29 23:33N 40°38' E 014°23'0 0.0
2016-Nov-29 22:33N 40°38' E 014°23'0 0.0
2016-Nov-29 21:33N 40°38' E 014°23'0 0.0
2016-Nov-29 20:33N 40°38' E 014°23'0 0.0
2016-Nov-29 19:33N 40°38' E 014°23'0 0.0
2016-Nov-29 18:33N 40°38' E 014°23'0 0.0
2016-Nov-29 17:33N 40°38' E 014°23'0 0.0
2016-Nov-29 16:33N 40°38' E 014°23'0 0.0
2016-Nov-29 15:33N 40°38' E 014°23'0 0.0
2016-Nov-29 14:34N 40°38' E 014°23'0 0.0
2016-Nov-29 13:33N 40°38' E 014°23'0 0.0
2016-Nov-29 12:33N 40°38' E 014°23'0 0.0
2016-Nov-29 11:33N 40°38' E 014°23'0 0.0
2016-Nov-29 10:33N 40°38' E 014°23'0 0.0
2016-Nov-29 09:33N 40°38' E 014°23'0 0.0
2016-Nov-29 08:33N 40°38' E 014°23'0 0.0
2016-Nov-29 07:33N 40°38' E 014°23'0 0.0
2016-Nov-29 06:33N 40°38' E 014°23'0 0.0
2016-Nov-29 05:33N 40°38' E 014°23'0 0.0
2016-Nov-29 04:33N 40°38' E 014°23'0 0.0
2016-Nov-29 03:33N 40°38' E 014°23'0 0.0
2016-Nov-29 02:33N 40°38' E 014°23'0 0.0
2016-Nov-29 01:33N 40°38' E 014°23'0 0.0
2016-Nov-29 00:33N 40°38' E 014°23'0 0.0
2016-Nov-28 23:33N 40°38' E 014°23'0 0.0
2016-Nov-28 22:33N 40°38' E 014°23'0 0.0
2016-Nov-28 21:33N 40°38' E 014°23'0 0.0
2016-Nov-28 20:33N 40°38' E 014°23'0 0.0
2016-Nov-28 19:33N 40°38' E 014°23'0 0.0
2016-Nov-28 18:33N 40°38' E 014°23'1212.0
2016-Nov-28 17:33N 40°49' E 014°17'2 0.6
2016-Nov-28 14:33N 40°51' E 014°16'0 0.0
2016-Nov-28 13:33N 40°51' E 014°16'0 0.0
2016-Nov-28 12:32N 40°51' E 014°16'0 0.0
2016-Nov-28 11:31N 40°51' E 014°16'0 0.0
2016-Nov-28 09:28N 40°51' E 014°16'0 0.0
2016-Nov-28 07:29N 40°51' E 014°16'8 9.1
2016-Nov-28 06:33N 40°43' E 014°21'5 5.1
2016-Nov-28 05:33N 40°38' E 014°23'0 0.0
2016-Nov-28 04:33N 40°38' E 014°23'0 0.0
2016-Nov-28 03:33N 40°38' E 014°23'0 0.0
2016-Nov-28 02:33N 40°38' E 014°23'0 0.0
2016-Nov-28 01:33N 40°38' E 014°23'0 0.0
2016-Nov-28 00:33N 40°38' E 014°23'0 0.0
2016-Nov-27 23:31N 40°38' E 014°23'0 0.0
2016-Nov-27 22:33N 40°38' E 014°23'0 0.0
2016-Nov-27 21:33N 40°38' E 014°23'  
2016-Nov-25 11:23N 40°51' E 014°16'0 0.0
2016-Nov-25 08:09N 40°51' E 014°16'0 0.0
2016-Nov-25 07:30N 40°51' E 014°16'9 9.4
2016-Nov-25 06:33N 40°42' E 014°21'5 4.4
2016-Nov-25 05:28N 40°38' E 014°23'0 0.0
2016-Nov-25 04:31N 40°38' E 014°23'0 0.0
2016-Nov-25 03:33N 40°38' E 014°23'0 0.0
2016-Nov-25 02:33N 40°38' E 014°23'0 0.0
2016-Nov-25 01:33N 40°38' E 014°23'0 0.0
2016-Nov-25 00:33N 40°38' E 014°23'0 0.0
2016-Nov-24 23:33N 40°38' E 014°23'0 0.0
2016-Nov-24 22:33N 40°38' E 014°23'0 0.0
2016-Nov-24 21:33N 40°38' E 014°23'0 0.0
2016-Nov-24 20:33N 40°38' E 014°23'0 0.0
2016-Nov-24 19:33N 40°38' E 014°23'0 0.0
2016-Nov-24 18:33N 40°38' E 014°23'1212.2
2016-Nov-24 17:33N 40°49' E 014°17'1 1.0
2016-Nov-24 16:08N 40°51' E 014°16'0 0.0
2016-Nov-24 10:20N 40°51' E 014°16'0 0.0
2016-Nov-24 09:23N 40°51' E 014°16'0 0.0
2016-Nov-24 08:31N 40°51' E 014°16'0 0.0
2016-Nov-24 07:31N 40°51' E 014°16'9 9.0
2016-Nov-24 06:33N 40°43' E 014°21'5 4.8
2016-Nov-24 05:32N 40°38' E 014°23'0 0.0
2016-Nov-24 04:32N 40°38' E 014°23'0 0.0
2016-Nov-24 03:33N 40°38' E 014°23'0 0.0
2016-Nov-24 02:33N 40°38' E 014°23'0 0.0
2016-Nov-24 01:32N 40°38' E 014°23'0 0.0
2016-Nov-24 00:30N 40°38' E 014°23'0 0.0
2016-Nov-23 23:33N 40°38' E 014°23'0 0.0
2016-Nov-23 22:31N 40°38' E 014°23'0 0.0
2016-Nov-23 21:33N 40°38' E 014°23'0 0.0
2016-Nov-23 20:31N 40°38' E 014°23'0 0.0
2016-Nov-23 19:33N 40°38' E 014°23'0 0.0
2016-Nov-23 18:33N 40°38' E 014°23'1211.8
2016-Nov-23 17:33N 40°49' E 014°17'2 1.8
2016-Nov-23 16:31N 40°50' E 014°15'1 0.8
2016-Nov-23 15:33N 40°51' E 014°16'0 0.0
2016-Nov-23 14:33N 40°51' E 014°16'0 0.0
2016-Nov-23 13:32N 40°51' E 014°16'0 0.0
2016-Nov-23 07:32N 40°51' E 014°16'9 9.0
2016-Nov-23 06:33N 40°43' E 014°21'5 1.6
2016-Nov-23 03:33N 40°38' E 014°23'0 0.0
2016-Nov-23 02:33N 40°38' E 014°23'0 0.0
2016-Nov-23 00:33N 40°38' E 014°23'0 0.0
2016-Nov-22 23:33N 40°38' E 014°23'0 0.0
2016-Nov-22 22:33N 40°38' E 014°23'0 0.0
2016-Nov-22 20:33N 40°38' E 014°23'0 0.0
2016-Nov-22 19:33N 40°38' E 014°23'12 6.0
2016-Nov-22 17:33N 40°49' E 014°17'2 0.7
2016-Nov-22 15:24N 40°50' E 014°16'0 0.0
2016-Nov-22 14:14N 40°51' E 014°16'0 0.0
2016-Nov-22 10:30N 40°51' E 014°16'0 0.0
2016-Nov-22 09:31N 40°51' E 014°16'0 0.0
2016-Nov-22 08:32N 40°51' E 014°16'14 1.5
2016-Nov-21 23:33N 40°38' E 014°23'0 0.0
2016-Nov-21 21:33N 40°38' E 014°23'12 3.1
2016-Nov-21 17:33N 40°49' E 014°17'1 0.4
2016-Nov-21 14:31N 40°51' E 014°16'  
Track history (hours):
 
Tides and Currents Weather Stations Pressure Air Temp Water Temp Dewpoint Dewpoint Depression Visibility Wind Speed Wind Dir Waves Ship Positions

Super Jet

Last reported at 2016-Dec-01 13:32 UTC. Time now 2016-Dec-03 19:46 UTC.
Position N 40°50' E 014°15'.

Length 30 m; draft 1.4 m.

Type: High speed craft. MMSI: 247540000.

Date/timePositionNaut miles runAvg speedWind from/ knotsBaromVisibWave heightAir tempDewpointWater temp
2016-Dec-01 13:32N 40°50' E 014°15'1 0.8
2016-Dec-01 12:33N 40°51' E 014°16'0 0.0
2016-Dec-01 11:33N 40°51' E 014°16'0 0.0
2016-Dec-01 10:24N 40°51' E 014°16'0 0.1
2016-Dec-01 07:20N 40°50' E 014°16'911.2
2016-Dec-01 06:33N 40°43' E 014°21'5 2.1
2016-Dec-01 04:17N 40°38' E 014°23'0 0.0
2016-Dec-01 03:31N 40°38' E 014°23'0 0.0
2016-Dec-01 02:33N 40°38' E 014°23'0 0.0
2016-Dec-01 01:31N 40°38' E 014°23'0 0.0
2016-Dec-01 00:28N 40°38' E 014°23'0 0.0
2016-Nov-30 23:31N 40°38' E 014°23'0 0.0
2016-Nov-30 22:33N 40°38' E 014°23'0 0.0
2016-Nov-30 21:33N 40°38' E 014°23'0 0.0
2016-Nov-30 20:34N 40°38' E 014°23'0 0.0
2016-Nov-30 19:33N 40°38' E 014°23'0 0.0
2016-Nov-30 18:33N 40°38' E 014°23'1211.8
2016-Nov-30 17:33N 40°49' E 014°17'2 0.9
2016-Nov-30 15:30N 40°51' E 014°16'0 0.0
2016-Nov-30 14:32N 40°51' E 014°16'0 0.0
2016-Nov-30 13:25N 40°50' E 014°16'0 0.0
2016-Nov-30 12:33N 40°51' E 014°16'0 0.0
2016-Nov-30 11:32N 40°51' E 014°16'0 0.0
2016-Nov-30 10:33N 40°51' E 014°16'0 0.0
2016-Nov-30 09:22N 40°50' E 014°16'9 3.3
2016-Nov-30 06:33N 40°43' E 014°23'5 4.7
2016-Nov-30 05:33N 40°38' E 014°23'0 0.0
2016-Nov-30 04:33N 40°38' E 014°23'0 0.0
2016-Nov-30 03:34N 40°38' E 014°23'0 0.0
2016-Nov-30 02:33N 40°38' E 014°23'0 0.0
2016-Nov-30 01:32N 40°38' E 014°23'0 0.0
2016-Nov-30 00:33N 40°38' E 014°23'0 0.0
2016-Nov-29 23:33N 40°38' E 014°23'0 0.0
2016-Nov-29 22:33N 40°38' E 014°23'0 0.0
2016-Nov-29 21:33N 40°38' E 014°23'0 0.0
2016-Nov-29 20:33N 40°38' E 014°23'0 0.0
2016-Nov-29 19:33N 40°38' E 014°23'0 0.0
2016-Nov-29 18:33N 40°38' E 014°23'0 0.0
2016-Nov-29 17:33N 40°38' E 014°23'0 0.0
2016-Nov-29 16:33N 40°38' E 014°23'0 0.0
2016-Nov-29 15:33N 40°38' E 014°23'0 0.0
2016-Nov-29 14:34N 40°38' E 014°23'0 0.0
2016-Nov-29 13:33N 40°38' E 014°23'0 0.0
2016-Nov-29 12:33N 40°38' E 014°23'0 0.0
2016-Nov-29 11:33N 40°38' E 014°23'0 0.0
2016-Nov-29 10:33N 40°38' E 014°23'0 0.0
2016-Nov-29 09:33N 40°38' E 014°23'0 0.0
2016-Nov-29 08:33N 40°38' E 014°23'0 0.0
2016-Nov-29 07:33N 40°38' E 014°23'0 0.0
2016-Nov-29 06:33N 40°38' E 014°23'0 0.0
2016-Nov-29 05:33N 40°38' E 014°23'0 0.0
2016-Nov-29 04:33N 40°38' E 014°23'0 0.0
2016-Nov-29 03:33N 40°38' E 014°23'0 0.0
2016-Nov-29 02:33N 40°38' E 014°23'0 0.0
2016-Nov-29 01:33N 40°38' E 014°23'0 0.0
2016-Nov-29 00:33N 40°38' E 014°23'0 0.0
2016-Nov-28 23:33N 40°38' E 014°23'0 0.0
2016-Nov-28 22:33N 40°38' E 014°23'0 0.0
2016-Nov-28 21:33N 40°38' E 014°23'0 0.0
2016-Nov-28 20:33N 40°38' E 014°23'0 0.0
2016-Nov-28 19:33N 40°38' E 014°23'0 0.0
2016-Nov-28 18:33N 40°38' E 014°23'1212.0
2016-Nov-28 17:33N 40°49' E 014°17'2 0.6
2016-Nov-28 14:33N 40°51' E 014°16'0 0.0
2016-Nov-28 13:33N 40°51' E 014°16'0 0.0
2016-Nov-28 12:32N 40°51' E 014°16'0 0.0
2016-Nov-28 11:31N 40°51' E 014°16'0 0.0
2016-Nov-28 09:28N 40°51' E 014°16'0 0.0
2016-Nov-28 07:29N 40°51' E 014°16'8 9.1
2016-Nov-28 06:33N 40°43' E 014°21'5 5.1
2016-Nov-28 05:33N 40°38' E 014°23'0 0.0
2016-Nov-28 04:33N 40°38' E 014°23'0 0.0
2016-Nov-28 03:33N 40°38' E 014°23'0 0.0
2016-Nov-28 02:33N 40°38' E 014°23'0 0.0
2016-Nov-28 01:33N 40°38' E 014°23'0 0.0
2016-Nov-28 00:33N 40°38' E 014°23'0 0.0
2016-Nov-27 23:31N 40°38' E 014°23'0 0.0
2016-Nov-27 22:33N 40°38' E 014°23'0 0.0
2016-Nov-27 21:33N 40°38' E 014°23'  
2016-Nov-25 11:23N 40°51' E 014°16'0 0.0
2016-Nov-25 08:09N 40°51' E 014°16'0 0.0
2016-Nov-25 07:30N 40°51' E 014°16'9 9.4
2016-Nov-25 06:33N 40°42' E 014°21'5 4.4
2016-Nov-25 05:28N 40°38' E 014°23'0 0.0
2016-Nov-25 04:31N 40°38' E 014°23'0 0.0
2016-Nov-25 03:33N 40°38' E 014°23'0 0.0
2016-Nov-25 02:33N 40°38' E 014°23'0 0.0
2016-Nov-25 01:33N 40°38' E 014°23'0 0.0
2016-Nov-25 00:33N 40°38' E 014°23'0 0.0
2016-Nov-24 23:33N 40°38' E 014°23'0 0.0
2016-Nov-24 22:33N 40°38' E 014°23'0 0.0
2016-Nov-24 21:33N 40°38' E 014°23'0 0.0
2016-Nov-24 20:33N 40°38' E 014°23'0 0.0
2016-Nov-24 19:33N 40°38' E 014°23'0 0.0
2016-Nov-24 18:33N 40°38' E 014°23'1212.2
2016-Nov-24 17:33N 40°49' E 014°17'1 1.0
2016-Nov-24 16:08N 40°51' E 014°16'0 0.0
2016-Nov-24 10:20N 40°51' E 014°16'0 0.0
2016-Nov-24 09:23N 40°51' E 014°16'0 0.0
2016-Nov-24 08:31N 40°51' E 014°16'0 0.0
2016-Nov-24 07:31N 40°51' E 014°16'9 9.0
2016-Nov-24 06:33N 40°43' E 014°21'5 4.8
2016-Nov-24 05:32N 40°38' E 014°23'0 0.0
2016-Nov-24 04:32N 40°38' E 014°23'0 0.0
2016-Nov-24 03:33N 40°38' E 014°23'0 0.0
2016-Nov-24 02:33N 40°38' E 014°23'0 0.0
2016-Nov-24 01:32N 40°38' E 014°23'0 0.0
2016-Nov-24 00:30N 40°38' E 014°23'0 0.0
2016-Nov-23 23:33N 40°38' E 014°23'0 0.0
2016-Nov-23 22:31N 40°38' E 014°23'0 0.0
2016-Nov-23 21:33N 40°38' E 014°23'0 0.0
2016-Nov-23 20:31N 40°38' E 014°23'0 0.0
2016-Nov-23 19:33N 40°38' E 014°23'0 0.0
2016-Nov-23 18:33N 40°38' E 014°23'1211.8
2016-Nov-23 17:33N 40°49' E 014°17'2 1.8
2016-Nov-23 16:31N 40°50' E 014°15'1 0.8
2016-Nov-23 15:33N 40°51' E 014°16'0 0.0
2016-Nov-23 14:33N 40°51' E 014°16'0 0.0
2016-Nov-23 13:32N 40°51' E 014°16'0 0.0
2016-Nov-23 07:32N 40°51' E 014°16'9 9.0
2016-Nov-23 06:33N 40°43' E 014°21'5 1.6
2016-Nov-23 03:33N 40°38' E 014°23'0 0.0
2016-Nov-23 02:33N 40°38' E 014°23'0 0.0
2016-Nov-23 00:33N 40°38' E 014°23'0 0.0
2016-Nov-22 23:33N 40°38' E 014°23'0 0.0
2016-Nov-22 22:33N 40°38' E 014°23'0 0.0
2016-Nov-22 20:33N 40°38' E 014°23'0 0.0
2016-Nov-22 19:33N 40°38' E 014°23'12 6.0
2016-Nov-22 17:33N 40°49' E 014°17'2 0.7
2016-Nov-22 15:24N 40°50' E 014°16'0 0.0
2016-Nov-22 14:14N 40°51' E 014°16'0 0.0
2016-Nov-22 10:30N 40°51' E 014°16'0 0.0
2016-Nov-22 09:31N 40°51' E 014°16'0 0.0
2016-Nov-22 08:32N 40°51' E 014°16'14 1.5
2016-Nov-21 23:33N 40°38' E 014°23'0 0.0
2016-Nov-21 21:33N 40°38' E 014°23'12 3.1
2016-Nov-21 17:33N 40°49' E 014°17'1 0.4
2016-Nov-21 14:31N 40°51' E 014°16'  

Dump ship's entire track history